Time;durP1;ratioP1;P1;durP2;ratioP2;P2;SDS_P1;SDS_P2;PMS_P1;PMS_P2;Temp;Humidity;BMP_temperature;BMP_pressure;BME280_temperature;BME280_humidity;BME280_pressure;Samples;Min_cycle;Max_cycle;Signal;HPM_P1;HPM_P2
2022/07/01 00:02:01;;;;;;;;;;;14.30;99.90;;;;;;4994407;28;19988;-67
2022/07/01 00:04:28;;;;;;;;;;;14.40;99.90;;;;;;4994202;28;19929;-68
2022/07/01 00:07:16;;;;;;;;;;;14.30;99.90;;;;;;5011675;28;20012;-68
2022/07/01 00:09:42;;;;;;;;;;;14.30;99.90;;;;;;4994565;28;19936;-68
2022/07/01 00:12:09;;;;;;;;;;;14.30;99.90;;;;;;4994376;28;19972;-68
2022/07/01 00:14:36;;;;;;;;;;;14.30;99.90;;;;;;4998405;28;19926;-68
2022/07/01 00:17:05;;;;;;;;;;;14.40;99.90;;;;;;4998161;28;20397;-67
2022/07/01 00:19:31;;;;;;;;;;;14.40;99.90;;;;;;4998025;28;19926;-68
2022/07/01 00:21:58;;;;;;;;;;;14.40;99.90;;;;;;4998249;28;19933;-68
2022/07/01 00:24:25;;;;;;;;;;;14.30;99.90;;;;;;4998234;28;19964;-68
2022/07/01 00:26:53;;;;;;;;;;;14.30;99.90;;;;;;4998238;28;19937;-68
2022/07/01 00:29:21;;;;;;;;;;;14.30;99.90;;;;;;4997627;28;20439;-68
2022/07/01 00:31:47;;;;;;;;;;;14.20;99.90;;;;;;4997769;28;19925;-68
2022/07/01 00:34:16;;;;;;;;;;;14.20;99.90;;;;;;4997627;28;20357;-68
2022/07/01 00:36:42;;;;;;;;;;;14.20;99.90;;;;;;4997611;28;19930;-68
2022/07/01 00:39:09;;;;;;;;;;;14.20;99.90;;;;;;4997582;28;19925;-69
2022/07/01 00:41:36;;;;;;;;;;;14.10;99.90;;;;;;4997769;28;19926;-68
2022/07/01 00:44:04;;;;;;;;;;;14.20;99.90;;;;;;4997900;28;19925;-69
2022/07/01 00:46:30;;;;;;;;;;;14.30;99.90;;;;;;4998066;28;20024;-68
2022/07/01 00:49:00;;;;;;;;;;;14.20;99.90;;;;;;4997634;28;19926;-68
2022/07/01 00:51:29;;;;;;;;;;;14.10;99.90;;;;;;4997432;28;19932;-68
2022/07/01 00:53:58;;;;;;;;;;;14.00;99.90;;;;;;4997563;28;19925;-68
2022/07/01 00:56:24;;;;;;;;;;;14.00;99.90;;;;;;4997427;28;19948;-68
2022/07/01 00:58:51;;;;;;;;;;;14.00;99.90;;;;;;4997566;28;20443;-67
2022/07/01 01:01:18;;;;;;;;;;;14.00;99.90;;;;;;4996320;28;20356;-68
2022/07/01 01:03:45;;;;;;;;;;;14.00;99.90;;;;;;4996767;28;19929;-68
2022/07/01 01:06:12;;;;;;;;;;;14.00;99.90;;;;;;4996890;28;20019;-68
2022/07/01 01:08:40;;;;;;;;;;;13.90;99.90;;;;;;4996797;28;19925;-69
2022/07/01 01:11:07;;;;;;;;;;;14.00;99.90;;;;;;4996430;28;20290;-68
2022/07/01 01:13:34;;;;;;;;;;;14.00;99.90;;;;;;4996659;28;19930;-68
2022/07/01 01:16:01;;;;;;;;;;;14.00;99.90;;;;;;4996536;28;19976;-68
2022/07/01 01:18:28;;;;;;;;;;;14.00;99.90;;;;;;4996669;28;19925;-68
2022/07/01 01:20:56;;;;;;;;;;;14.00;99.90;;;;;;4996460;28;19933;-68
2022/07/01 01:23:23;;;;;;;;;;;14.00;99.90;;;;;;4996024;28;19933;-69
2022/07/01 01:25:50;;;;;;;;;;;14.00;99.90;;;;;;4996048;28;19964;-68
2022/07/01 01:28:17;;;;;;;;;;;14.00;99.90;;;;;;4996126;28;20401;-69
2022/07/01 01:30:44;;;;;;;;;;;13.90;99.90;;;;;;4995770;28;19933;-69
2022/07/01 01:33:11;;;;;;;;;;;13.90;99.90;;;;;;4995985;28;19926;-68
2022/07/01 01:35:38;;;;;;;;;;;13.90;99.90;;;;;;4995772;28;19957;-68
2022/07/01 01:38:06;;;;;;;;;;;14.00;99.90;;;;;;4995753;28;20353;-68
2022/07/01 01:40:33;;;;;;;;;;;14.00;99.90;;;;;;4995886;28;20103;-68
2022/07/01 01:42:59;;;;;;;;;;;14.00;99.90;;;;;;4995626;28;19980;-67
2022/07/01 01:45:26;;;;;;;;;;;14.10;99.90;;;;;;4995932;28;20278;-68
2022/07/01 01:47:53;;;;;;;;;;;14.10;99.90;;;;;;4995972;28;20511;-68
2022/07/01 01:50:20;;;;;;;;;;;14.00;99.90;;;;;;4995666;28;19925;-68
2022/07/01 01:52:47;;;;;;;;;;;13.90;99.90;;;;;;4995850;28;20021;-68
2022/07/01 01:55:16;;;;;;;;;;;13.80;99.90;;;;;;4995076;28;20360;-68
2022/07/01 01:57:43;;;;;;;;;;;13.90;99.90;;;;;;4995434;28;19926;-68
2022/07/01 02:00:10;;;;;;;;;;;13.90;99.90;;;;;;4994325;28;20344;-68
2022/07/01 02:02:40;;;;;;;;;;;13.80;99.90;;;;;;4995363;28;19929;-68
2022/07/01 02:05:10;;;;;;;;;;;13.80;99.90;;;;;;4995158;28;19925;-68
2022/07/01 02:07:36;;;;;;;;;;;13.80;99.90;;;;;;4995260;28;20332;-68
2022/07/01 02:10:03;;;;;;;;;;;13.90;99.90;;;;;;4995036;28;19933;-68
2022/07/01 02:12:32;;;;;;;;;;;13.90;99.90;;;;;;4995391;28;20348;-68
2022/07/01 02:14:58;;;;;;;;;;;13.90;99.90;;;;;;4995046;28;19925;-68
2022/07/01 02:17:25;;;;;;;;;;;13.90;99.90;;;;;;4995101;28;19968;-68
2022/07/01 02:19:52;;;;;;;;;;;13.90;99.90;;;;;;4994935;28;19976;-69
2022/07/01 02:22:19;;;;;;;;;;;13.90;99.90;;;;;;4995166;28;19933;-68
2022/07/01 02:24:46;;;;;;;;;;;13.80;99.90;;;;;;4994959;28;19925;-68
2022/07/01 02:27:13;;;;;;;;;;;13.70;99.90;;;;;;4995125;28;20348;-68
2022/07/01 02:29:42;;;;;;;;;;;13.70;99.90;;;;;;4994863;28;19960;-68
2022/07/01 02:32:08;;;;;;;;;;;13.70;99.90;;;;;;4994698;28;19960;-69
2022/07/01 02:34:35;;;;;;;;;;;13.60;99.90;;;;;;4994256;28;19996;-68
2022/07/01 02:37:02;;;;;;;;;;;13.60;99.90;;;;;;4994224;28;20019;-68
2022/07/01 02:39:29;;;;;;;;;;;13.70;99.90;;;;;;4994826;28;20409;-68
2022/07/01 02:44:41;;;;;;;;;;;13.60;99.90;;;;;;4994432;28;19921;-68
2022/07/01 02:47:08;;;;;;;;;;;13.70;99.90;;;;;;4994381;28;19976;-68
2022/07/01 02:49:35;;;;;;;;;;;13.60;99.90;;;;;;4994604;28;20332;-68
2022/07/01 02:52:02;;;;;;;;;;;13.60;99.90;;;;;;4994588;28;19961;-68
2022/07/01 02:54:29;;;;;;;;;;;13.60;99.90;;;;;;4994324;28;19929;-68
2022/07/01 02:56:56;;;;;;;;;;;13.60;99.90;;;;;;4994407;28;19925;-68
2022/07/01 02:59:22;;;;;;;;;;;13.60;99.90;;;;;;4994016;28;19931;-68
2022/07/01 03:01:50;;;;;;;;;;;13.60;99.90;;;;;;4994164;28;20305;-69
2022/07/01 03:04:18;;;;;;;;;;;13.60;99.90;;;;;;4993967;28;20356;-68
2022/07/01 03:06:44;;;;;;;;;;;13.60;99.90;;;;;;4994352;28;20020;-67
2022/07/01 03:09:11;;;;;;;;;;;13.60;99.90;;;;;;4994246;28;19930;-67
2022/07/01 03:11:38;;;;;;;;;;;13.50;99.90;;;;;;4994285;28;20309;-67
2022/07/01 03:14:05;;;;;;;;;;;13.50;99.90;;;;;;4993944;28;20055;-67
2022/07/01 03:16:31;;;;;;;;;;;13.50;99.90;;;;;;4994254;28;19932;-67
2022/07/01 03:19:01;;;;;;;;;;;13.50;99.90;;;;;;4993926;28;19925;-67
2022/07/01 03:21:28;;;;;;;;;;;13.40;99.90;;;;;;4993900;28;19925;-67
2022/07/01 03:23:55;;;;;;;;;;;13.50;99.90;;;;;;4993712;28;19991;-67
2022/07/01 03:26:22;;;;;;;;;;;13.50;99.90;;;;;;4993909;28;20348;-65
2022/07/01 03:28:48;;;;;;;;;;;13.40;99.90;;;;;;4993905;28;20356;-67
2022/07/01 03:31:15;;;;;;;;;;;13.50;99.90;;;;;;4993918;28;20294;-67
2022/07/01 03:33:42;;;;;;;;;;;13.40;99.90;;;;;;4993782;28;19929;-69
2022/07/01 03:36:10;;;;;;;;;;;13.40;99.90;;;;;;4993795;28;20377;-67
2022/07/01 03:38:37;;;;;;;;;;;13.40;99.90;;;;;;4993699;28;20367;-67
2022/07/01 03:41:04;;;;;;;;;;;13.50;99.90;;;;;;4993665;28;19972;-68
2022/07/01 03:43:30;;;;;;;;;;;13.50;99.90;;;;;;4993468;28;19926;-67
2022/07/01 03:45:57;;;;;;;;;;;13.50;99.90;;;;;;4993634;28;19975;-67
2022/07/01 03:48:25;;;;;;;;;;;13.50;99.90;;;;;;4997851;28;19987;-67
2022/07/01 03:50:52;;;;;;;;;;;13.50;99.90;;;;;;4997469;28;20334;-67
2022/07/01 03:56:05;;;;;;;;;;;13.60;99.90;;;;;;4997764;28;20022;-67
2022/07/01 03:58:31;;;;;;;;;;;13.60;99.90;;;;;;4997929;28;20020;-67
2022/07/01 04:00:58;;;;;;;;;;;13.70;99.90;;;;;;4997298;28;19929;-67
2022/07/01 04:03:25;;;;;;;;;;;13.70;99.90;;;;;;4997493;28;20024;-67
2022/07/01 04:05:52;;;;;;;;;;;13.80;99.90;;;;;;4997527;28;19930;-69
2022/07/01 04:08:20;;;;;;;;;;;13.80;99.90;;;;;;4997412;28;19971;-67
2022/07/01 04:10:48;;;;;;;;;;;13.80;99.90;;;;;;4997450;28;19930;-67
2022/07/01 04:13:14;;;;;;;;;;;13.80;99.90;;;;;;4997460;28;19925;-67
2022/07/01 04:15:41;;;;;;;;;;;13.80;99.90;;;;;;4997085;28;19929;-67
2022/07/01 04:18:08;;;;;;;;;;;13.90;99.90;;;;;;4997225;28;19980;-68
2022/07/01 04:20:35;;;;;;;;;;;13.80;99.90;;;;;;4997094;28;19929;-67
2022/07/01 04:23:00;;;;;;;;;;;13.80;99.90;;;;;;4997224;28;19925;-67
2022/07/01 04:25:29;;;;;;;;;;;13.80;99.90;;;;;;4997080;28;19983;-67
2022/07/01 04:27:56;;;;;;;;;;;13.90;99.90;;;;;;4997434;28;19932;-67
2022/07/01 04:30:23;;;;;;;;;;;14.00;99.90;;;;;;4997117;28;20052;-67
2022/07/01 04:32:50;;;;;;;;;;;14.00;99.90;;;;;;4997177;28;20348;-67
2022/07/01 04:35:17;;;;;;;;;;;13.90;99.90;;;;;;4997402;28;19977;-67
2022/07/01 04:37:44;;;;;;;;;;;13.90;99.90;;;;;;4996969;28;19926;-67
2022/07/01 04:40:10;;;;;;;;;;;13.80;99.90;;;;;;4997329;28;19933;-67
2022/07/01 04:42:37;;;;;;;;;;;13.90;99.90;;;;;;4997166;28;19926;-68
2022/07/01 04:45:05;;;;;;;;;;;13.90;99.90;;;;;;4996597;28;19926;-68
2022/07/01 04:47:32;;;;;;;;;;;14.00;99.90;;;;;;4997254;28;19976;-68
2022/07/01 04:50:01;;;;;;;;;;;14.00;99.90;;;;;;4996938;28;19931;-68
2022/07/01 04:52:28;;;;;;;;;;;14.10;99.90;;;;;;4996402;28;19929;-68
2022/07/01 04:54:55;;;;;;;;;;;14.20;99.90;;;;;;4996661;28;19926;-67
2022/07/01 04:57:33;;;;;;;;;;;14.20;99.90;;;;;;4996521;28;19929;-67
2022/07/01 05:00:02;;;;;;;;;;;14.30;99.90;;;;;;4995589;28;20325;-67
2022/07/01 05:02:28;;;;;;;;;;;14.40;99.90;;;;;;4994298;28;19928;-68
2022/07/01 05:04:55;;;;;;;;;;;14.50;99.90;;;;;;5010157;28;20016;-69
2022/07/01 05:07:31;;;;;;;;;;;14.50;99.90;;;;;;5005389;28;20459;-68
2022/07/01 05:09:59;;;;;;;;;;;14.60;99.90;;;;;;4996455;28;20385;-68
2022/07/01 05:12:25;;;;;;;;;;;14.60;99.90;;;;;;4996032;28;19961;-69
2022/07/01 05:14:52;;;;;;;;;;;14.50;99.90;;;;;;5028647;28;20364;-68
2022/07/01 05:21:55;;;;;;;;;;;14.60;99.90;;;;;;4996136;28;19975;-68
2022/07/01 05:22:53;;;;;;;;;;;14.60;99.90;;;;;;4995921;28;20012;-67
2022/07/01 05:25:20;;;;;;;;;;;14.60;99.90;;;;;;4995671;28;20369;-68
2022/07/01 05:27:47;;;;;;;;;;;14.60;99.90;;;;;;4995930;28;19932;-68
2022/07/01 05:30:14;;;;;;;;;;;14.60;99.90;;;;;;4995844;28;19925;-69
2022/07/01 05:32:42;;;;;;;;;;;14.60;99.90;;;;;;4996004;28;19925;-68
2022/07/01 05:35:09;;;;;;;;;;;14.70;99.90;;;;;;4993936;28;19925;-68
2022/07/01 05:37:35;;;;;;;;;;;14.70;99.90;;;;;;4982300;28;20186;-69
2022/07/01 05:40:02;;;;;;;;;;;14.70;99.90;;;;;;4992296;28;19952;-69
2022/07/01 05:42:29;;;;;;;;;;;14.70;99.90;;;;;;4994092;28;19929;-69
2022/07/01 05:44:56;;;;;;;;;;;14.70;99.90;;;;;;4992690;28;19937;-69
2022/07/01 05:47:22;;;;;;;;;;;14.80;99.90;;;;;;4993357;28;19929;-69
2022/07/01 05:49:51;;;;;;;;;;;15.00;99.90;;;;;;4993946;28;20005;-68
2022/07/01 05:52:18;;;;;;;;;;;15.30;99.90;;;;;;4993209;28;19929;-70
2022/07/01 05:54:44;;;;;;;;;;;15.30;99.90;;;;;;4993230;28;19926;-68
2022/07/01 05:57:11;;;;;;;;;;;15.60;99.90;;;;;;4993403;28;19926;-67
2022/07/01 05:59:38;;;;;;;;;;;15.70;99.90;;;;;;4994546;28;20032;-68
2022/07/01 06:02:05;;;;;;;;;;;15.50;99.90;;;;;;4994951;28;19980;-69
2022/07/01 06:04:32;;;;;;;;;;;15.70;99.90;;;;;;4994436;28;19956;-67
2022/07/01 06:07:00;;;;;;;;;;;15.80;99.90;;;;;;4995192;28;19937;-69
2022/07/01 06:09:27;;;;;;;;;;;15.80;99.90;;;;;;4994067;28;19929;-69
2022/07/01 06:11:53;;;;;;;;;;;15.90;99.90;;;;;;5009325;28;19929;-69
2022/07/01 06:14:20;;;;;;;;;;;15.80;99.90;;;;;;4996544;28;20460;-69
2022/07/01 06:16:47;;;;;;;;;;;15.70;99.90;;;;;;5000044;28;19933;-68
2022/07/01 06:19:14;;;;;;;;;;;15.40;99.90;;;;;;4995595;28;20452;-69
2022/07/01 06:21:40;;;;;;;;;;;15.40;99.90;;;;;;4994338;28;19932;-68
2022/07/01 06:24:09;;;;;;;;;;;15.40;99.90;;;;;;4994510;28;20282;-69
2022/07/01 06:26:35;;;;;;;;;;;15.50;99.90;;;;;;4993719;28;19925;-69
2022/07/01 06:29:02;;;;;;;;;;;15.40;99.90;;;;;;4993621;28;19925;-68
2022/07/01 06:31:29;;;;;;;;;;;15.40;99.90;;;;;;4994661;28;19933;-69
2022/07/01 06:33:56;;;;;;;;;;;15.40;99.90;;;;;;4994007;28;19925;-69
2022/07/01 06:36:23;;;;;;;;;;;15.50;99.90;;;;;;4993863;28;19980;-69
2022/07/01 06:38:49;;;;;;;;;;;15.50;99.90;;;;;;4993905;28;20348;-69
2022/07/01 06:41:29;;;;;;;;;;;15.50;99.90;;;;;;4993233;28;19926;-68
2022/07/01 06:43:56;;;;;;;;;;;15.60;99.90;;;;;;4989083;28;19925;-69
2022/07/01 06:46:23;;;;;;;;;;;15.50;99.90;;;;;;4994269;28;20393;-69
2022/07/01 06:48:50;;;;;;;;;;;15.60;99.90;;;;;;4993495;28;19930;-69
2022/07/01 06:51:18;;;;;;;;;;;15.60;99.90;;;;;;4993810;28;19933;-68
2022/07/01 06:53:46;;;;;;;;;;;15.60;99.90;;;;;;4987513;28;20255;-69
2022/07/01 06:56:13;;;;;;;;;;;15.60;99.90;;;;;;4994196;28;20032;-69
2022/07/01 06:58:41;;;;;;;;;;;15.70;99.90;;;;;;4993798;28;19926;-68
2022/07/01 07:01:08;;;;;;;;;;;15.80;99.90;;;;;;4993662;28;20310;-68
2022/07/01 07:03:35;;;;;;;;;;;15.80;99.90;;;;;;4993148;28;19980;-69
2022/07/01 07:06:02;;;;;;;;;;;16.00;99.90;;;;;;4993989;28;19995;-69
2022/07/01 07:08:29;;;;;;;;;;;16.00;99.90;;;;;;4992710;28;19926;-68
2022/07/01 07:10:56;;;;;;;;;;;15.90;99.90;;;;;;4993668;28;19925;-68
2022/07/01 07:13:23;;;;;;;;;;;15.80;99.90;;;;;;4993399;28;19925;-69
2022/07/01 07:15:51;;;;;;;;;;;15.80;99.90;;;;;;4994016;28;20455;-69
2022/07/01 07:18:18;;;;;;;;;;;16.00;99.90;;;;;;4993539;28;19937;-69
2022/07/01 07:20:45;;;;;;;;;;;16.20;99.90;;;;;;4993436;28;19932;-69
2022/07/01 07:23:11;;;;;;;;;;;16.20;99.90;;;;;;4993022;28;19929;-69
2022/07/01 07:25:38;;;;;;;;;;;16.10;99.90;;;;;;4993543;28;19937;-69
2022/07/01 07:28:05;;;;;;;;;;;16.10;99.90;;;;;;4993676;28;20365;-69
2022/07/01 07:30:31;;;;;;;;;;;15.90;99.90;;;;;;4993384;28;20393;-72
2022/07/01 07:33:00;;;;;;;;;;;16.10;99.90;;;;;;4993186;28;19930;-69
2022/07/01 07:35:26;;;;;;;;;;;16.00;99.90;;;;;;4993143;28;19948;-69
2022/07/01 07:37:53;;;;;;;;;;;16.30;99.90;;;;;;4993371;28;19932;-69
2022/07/01 07:40:20;;;;;;;;;;;16.30;99.90;;;;;;4993688;28;19925;-68
2022/07/01 07:42:47;;;;;;;;;;;16.40;99.90;;;;;;4994517;28;19948;-67
2022/07/01 07:45:15;;;;;;;;;;;16.30;99.90;;;;;;4993938;28;19976;-68
2022/07/01 07:47:42;;;;;;;;;;;16.40;99.90;;;;;;4993980;28;19933;-68
2022/07/01 07:50:11;;;;;;;;;;;16.30;99.90;;;;;;4993824;28;19932;-74
2022/07/01 07:52:38;;;;;;;;;;;16.30;99.90;;;;;;4993862;28;19933;-74
2022/07/01 07:55:05;;;;;;;;;;;16.40;99.90;;;;;;4993279;28;19929;-68
2022/07/01 07:57:32;;;;;;;;;;;16.40;99.90;;;;;;4994623;28;20373;-69
2022/07/01 07:59:59;;;;;;;;;;;16.40;99.90;;;;;;4994453;28;19933;-69
2022/07/01 08:02:25;;;;;;;;;;;16.20;99.90;;;;;;4994383;28;19984;-68
2022/07/01 08:04:52;;;;;;;;;;;16.30;99.90;;;;;;4994347;28;19984;-69
2022/07/01 08:07:20;;;;;;;;;;;16.50;99.90;;;;;;4993617;28;19926;-69
2022/07/01 08:09:49;;;;;;;;;;;16.90;99.90;;;;;;4993277;28;19925;-68
2022/07/01 08:12:15;;;;;;;;;;;17.10;99.90;;;;;;4975901;28;20390;-68
2022/07/01 08:14:42;;;;;;;;;;;17.10;99.90;;;;;;4974001;28;19976;-68
2022/07/01 08:17:09;;;;;;;;;;;17.10;99.90;;;;;;4974182;28;19934;-68
2022/07/01 08:19:36;;;;;;;;;;;17.10;99.90;;;;;;4973635;28;19929;-68
2022/07/01 08:22:03;;;;;;;;;;;17.40;99.90;;;;;;4973922;28;19930;-68
2022/07/01 08:24:31;;;;;;;;;;;17.50;99.90;;;;;;4973543;28;19926;-68
2022/07/01 08:26:59;;;;;;;;;;;17.50;99.90;;;;;;4974544;28;20390;-69
2022/07/01 08:29:25;;;;;;;;;;;17.60;99.90;;;;;;4973542;28;20341;-68
2022/07/01 08:31:52;;;;;;;;;;;17.30;99.90;;;;;;4974082;28;19933;-69
2022/07/01 08:34:19;;;;;;;;;;;17.20;99.90;;;;;;4975454;28;19963;-68
2022/07/01 08:36:45;;;;;;;;;;;17.00;99.90;;;;;;4977499;28;19926;-68
2022/07/01 08:39:12;;;;;;;;;;;17.10;99.90;;;;;;4977103;28;19926;-68
2022/07/01 08:41:41;;;;;;;;;;;17.30;99.90;;;;;;4977863;28;20348;-69
2022/07/01 08:44:08;;;;;;;;;;;17.20;99.90;;;;;;4977390;28;19925;-68
2022/07/01 08:46:35;;;;;;;;;;;17.20;99.90;;;;;;4977500;28;19955;-68
2022/07/01 08:49:02;;;;;;;;;;;17.10;99.90;;;;;;4977134;28;20386;-68
2022/07/01 08:51:29;;;;;;;;;;;17.30;99.90;;;;;;4977236;28;19929;-69
2022/07/01 08:53:56;;;;;;;;;;;17.60;99.90;;;;;;4977311;28;19930;-69
2022/07/01 08:59:10;;;;;;;;;;;18.20;99.90;;;;;;4977065;28;19926;-69
2022/07/01 09:01:37;;;;;;;;;;;18.70;99.90;;;;;;4977514;28;19934;-69
2022/07/01 09:04:13;;;;;;;;;;;18.70;99.90;;;;;;4976916;28;19934;-69
2022/07/01 09:06:41;;;;;;;;;;;18.70;99.90;;;;;;4977291;28;19926;-69
2022/07/01 09:09:11;;;;;;;;;;;18.70;99.90;;;;;;4976892;28;19932;-69
2022/07/01 09:11:38;;;;;;;;;;;18.80;99.90;;;;;;4989819;28;20401;-70
2022/07/01 09:14:10;;;;;;;;;;;18.90;99.90;;;;;;4995988;28;19926;-69
2022/07/01 09:16:40;;;;;;;;;;;19.00;99.90;;;;;;4996843;28;19929;-69
2022/07/01 09:19:07;;;;;;;;;;;19.10;99.90;;;;;;4996632;28;20456;-69
2022/07/01 09:21:34;;;;;;;;;;;19.00;99.90;;;;;;4995194;28;19980;-69
2022/07/01 09:24:03;;;;;;;;;;;19.00;99.90;;;;;;4990063;28;19925;-69
2022/07/01 09:26:30;;;;;;;;;;;18.90;99.90;;;;;;5010881;28;20028;-68
2022/07/01 09:28:59;;;;;;;;;;;18.70;99.90;;;;;;4995492;28;20348;-69
2022/07/01 09:31:33;;;;;;;;;;;18.50;99.90;;;;;;4996119;28;19932;-69
2022/07/01 09:34:04;;;;;;;;;;;18.60;99.90;;;;;;4995770;28;19930;-69
2022/07/01 09:36:31;;;;;;;;;;;18.70;99.90;;;;;;4994245;28;19961;-68
2022/07/01 09:38:57;;;;;;;;;;;18.40;99.90;;;;;;4995304;28;19984;-69
2022/07/01 09:41:25;;;;;;;;;;;18.50;99.90;;;;;;4995038;28;19925;-69
2022/07/01 09:43:51;;;;;;;;;;;18.60;99.90;;;;;;4995569;28;19933;-69
2022/07/01 09:46:18;;;;;;;;;;;18.70;99.90;;;;;;4995490;28;19926;-69
2022/07/01 09:48:47;;;;;;;;;;;18.80;99.90;;;;;;4995563;28;20364;-68
2022/07/01 09:51:15;;;;;;;;;;;19.10;99.90;;;;;;4994957;28;20020;-69
2022/07/01 09:53:42;;;;;;;;;;;19.10;99.90;;;;;;4995222;28;19991;-69
2022/07/01 09:56:09;;;;;;;;;;;19.10;99.90;;;;;;4995283;28;19929;-69
2022/07/01 09:58:38;;;;;;;;;;;19.30;99.90;;;;;;4993937;28;19925;-69
2022/07/01 10:01:07;;;;;;;;;;;19.20;99.90;;;;;;4995069;28;19929;-69
2022/07/01 10:03:34;;;;;;;;;;;19.70;99.90;;;;;;4994723;28;20344;-69
2022/07/01 10:06:12;;;;;;;;;;;20.10;99.90;;;;;;4994960;28;19929;-70
2022/07/01 10:08:51;;;;;;;;;;;20.20;99.90;;;;;;5010949;28;20339;-69
2022/07/01 10:11:34;;;;;;;;;;;20.10;99.90;;;;;;4996868;28;19979;-69
2022/07/01 10:14:04;;;;;;;;;;;19.90;99.90;;;;;;4965259;28;19925;-69
2022/07/01 10:16:31;;;;;;;;;;;19.60;99.90;;;;;;4992749;28;19987;-67
2022/07/01 10:18:58;;;;;;;;;;;19.70;99.90;;;;;;4994417;28;19988;-67
2022/07/01 10:21:30;;;;;;;;;;;19.70;99.90;;;;;;4994126;28;19926;-71
2022/07/01 10:24:11;;;;;;;;;;;19.60;99.90;;;;;;4990532;28;19933;-72
2022/07/01 10:26:38;;;;;;;;;;;19.70;99.90;;;;;;4993939;28;19933;-69
2022/07/01 10:29:07;;;;;;;;;;;19.70;99.90;;;;;;4993931;28;19933;-70
2022/07/01 10:31:36;;;;;;;;;;;19.80;99.90;;;;;;4994694;28;19925;-69
2022/07/01 10:34:03;;;;;;;;;;;19.70;99.90;;;;;;4993622;28;20448;-70
2022/07/01 10:36:32;;;;;;;;;;;20.10;99.90;;;;;;5008283;28;19979;-70
2022/07/01 10:39:10;;;;;;;;;;;20.30;99.90;;;;;;4994039;28;19948;-70
2022/07/01 10:41:38;;;;;;;;;;;20.60;99.90;;;;;;4993315;28;19940;-70
2022/07/01 10:44:05;;;;;;;;;;;20.90;99.90;;;;;;4993470;28;19932;-69
2022/07/01 10:46:40;;;;;;;;;;;20.70;99.90;;;;;;4995433;28;19926;-74
2022/07/01 10:49:07;;;;;;;;;;;20.10;99.90;;;;;;4992743;28;20386;-76
2022/07/01 10:51:46;;;;;;;;;;;19.80;99.90;;;;;;4998875;28;19968;-71
2022/07/01 10:54:13;;;;;;;;;;;19.50;99.90;;;;;;5008290;28;19940;-70
2022/07/01 10:56:40;;;;;;;;;;;19.70;99.90;;;;;;5001954;28;19930;-70
2022/07/01 10:59:07;;;;;;;;;;;20.10;99.90;;;;;;5001507;28;19929;-69
2022/07/01 11:01:34;;;;;;;;;;;20.50;99.90;;;;;;5002391;28;19925;-70
2022/07/01 11:04:02;;;;;;;;;;;20.70;99.90;;;;;;5000672;28;19975;-70
2022/07/01 11:06:30;;;;;;;;;;;20.70;99.90;;;;;;5005885;28;19925;-70
2022/07/01 11:08:59;;;;;;;;;;;20.60;99.90;;;;;;5003054;28;19932;-69
2022/07/01 11:11:26;;;;;;;;;;;20.80;99.90;;;;;;5001873;28;19926;-70
2022/07/01 11:13:52;;;;;;;;;;;21.00;99.90;;;;;;4995602;28;19930;-69
2022/07/01 11:16:19;;;;;;;;;;;20.50;99.90;;;;;;4999095;28;19925;-71
2022/07/01 11:18:46;;;;;;;;;;;20.30;99.90;;;;;;5009850;28;19941;-71
2022/07/01 11:21:13;;;;;;;;;;;20.20;99.90;;;;;;4993741;28;19925;-71
2022/07/01 11:23:40;;;;;;;;;;;20.20;99.90;;;;;;4993611;28;19926;-70
2022/07/01 11:26:08;;;;;;;;;;;20.50;99.90;;;;;;4993788;28;20003;-71
2022/07/01 11:28:40;;;;;;;;;;;20.70;99.90;;;;;;4993368;28;19925;-70
2022/07/01 11:31:06;;;;;;;;;;;21.00;99.90;;;;;;4993448;28;19925;-70
2022/07/01 11:33:33;;;;;;;;;;;21.50;99.90;;;;;;4992716;28;20297;-70
2022/07/01 11:41:31;;;;;;;;;;;21.50;99.90;;;;;;4993029;28;19925;-71
2022/07/01 11:44:04;;;;;;;;;;;21.50;99.90;;;;;;4993085;28;19925;-71
2022/07/01 11:46:31;;;;;;;;;;;21.70;99.90;;;;;;4991947;28;20408;-70
2022/07/01 11:48:58;;;;;;;;;;;22.10;99.90;;;;;;4992811;28;20352;-70
2022/07/01 11:51:26;;;;;;;;;;;22.60;99.90;;;;;;4993402;28;19933;-72
2022/07/01 11:53:54;;;;;;;;;;;22.50;99.90;;;;;;4993632;28;19976;-71
2022/07/01 11:56:28;;;;;;;;;;;22.60;99.90;;;;;;4993078;28;19940;-71
2022/07/01 11:58:57;;;;;;;;;;;23.10;99.90;;;;;;4992609;28;19925;-71
2022/07/01 12:01:25;;;;;;;;;;;24.10;99.90;;;;;;4992762;28;19933;-71
2022/07/01 12:03:52;;;;;;;;;;;24.80;99.90;;;;;;4992668;28;20017;-71
2022/07/01 12:06:19;;;;;;;;;;;25.70;99.90;;;;;;4992864;28;19926;-71
2022/07/01 12:08:46;;;;;;;;;;;25.20;99.90;;;;;;4993284;28;19926;-68
2022/07/01 12:11:13;;;;;;;;;;;24.70;99.90;;;;;;4997018;28;19979;-69
2022/07/01 12:13:40;;;;;;;;;;;24.50;99.90;;;;;;4996843;28;19925;-70
2022/07/01 12:16:09;;;;;;;;;;;24.80;99.90;;;;;;4996976;28;20443;-70
2022/07/01 12:18:36;;;;;;;;;;;26.10;99.90;;;;;;4996421;28;19925;-72
2022/07/01 12:21:02;;;;;;;;;;;27.40;99.90;;;;;;4996779;28;19925;-70
2022/07/01 12:23:30;;;;;;;;;;;26.30;99.90;;;;;;4996658;28;19979;-70
2022/07/01 12:25:56;;;;;;;;;;;25.00;99.90;;;;;;4996899;28;19932;-70
2022/07/01 12:28:27;;;;;;;;;;;25.50;99.90;;;;;;4996780;28;19934;-70
2022/07/01 12:31:00;;;;;;;;;;;27.10;99.90;;;;;;4996299;28;20381;-70
2022/07/01 12:33:28;;;;;;;;;;;27.00;99.90;;;;;;4995896;28;19980;-70
2022/07/01 12:35:55;;;;;;;;;;;27.40;99.90;;;;;;4996380;28;19968;-69
2022/07/01 12:38:22;;;;;;;;;;;26.70;99.90;;;;;;4995710;28;19934;-70
2022/07/01 12:40:48;;;;;;;;;;;26.20;99.90;;;;;;4996264;28;19937;-69
2022/07/01 12:43:25;;;;;;;;;;;26.50;99.90;;;;;;4996606;28;19926;-69
2022/07/01 12:45:52;;;;;;;;;;;27.50;99.90;;;;;;4990676;28;19972;-69
2022/07/01 12:48:19;;;;;;;;;;;27.50;99.90;;;;;;4994854;28;19925;-68
2022/07/01 12:50:47;;;;;;;;;;;27.50;99.90;;;;;;4995999;28;19925;-69
2022/07/01 12:53:19;;;;;;;;;;;27.40;99.90;;;;;;4995924;28;20016;-69
2022/07/01 12:55:46;;;;;;;;;;;26.60;99.90;;;;;;4990342;28;19933;-69
2022/07/01 12:58:14;;;;;;;;;;;27.40;99.90;;;;;;4995688;28;19926;-69
2022/07/01 13:00:42;;;;;;;;;;;26.90;99.90;;;;;;4996207;28;20353;-69
2022/07/01 13:03:09;;;;;;;;;;;26.50;99.90;;;;;;4995895;28;19926;-69
2022/07/01 13:05:39;;;;;;;;;;;26.80;99.90;;;;;;4996121;28;19925;-69
2022/07/01 13:08:08;;;;;;;;;;;27.80;99.90;;;;;;4995839;28;19955;-70
2022/07/01 13:10:34;;;;;;;;;;;29.60;99.90;;;;;;4991384;28;19929;-68
2022/07/01 13:13:02;;;;;;;;;;;29.30;99.90;;;;;;4976983;28;19930;-69
2022/07/01 13:15:29;;;;;;;;;;;29.00;99.90;;;;;;4976555;28;19955;-73
2022/07/01 13:17:56;;;;;;;;;;;27.70;99.90;;;;;;4976984;28;20400;-67
2022/07/01 13:20:23;;;;;;;;;;;26.50;99.90;;;;;;4975905;28;20333;-70
2022/07/01 13:22:49;;;;;;;;;;;26.40;99.90;;;;;;4976753;28;19948;-67
2022/07/01 13:25:18;;;;;;;;;;;25.60;99.90;;;;;;4976553;28;19933;-67
2022/07/01 13:27:44;;;;;;;;;;;24.90;99.90;;;;;;4976806;28;19930;-68
2022/07/01 13:30:12;;;;;;;;;;;24.60;99.90;;;;;;4976491;28;19926;-68
2022/07/01 13:32:39;;;;;;;;;;;23.40;99.90;;;;;;4976387;28;19925;-68
2022/07/01 13:35:07;;;;;;;;;;;22.80;99.90;;;;;;4976395;28;19926;-69
2022/07/01 13:37:34;;;;;;;;;;;22.60;99.90;;;;;;4976658;28;19926;-69
2022/07/01 13:40:00;;;;;;;;;;;22.80;99.90;;;;;;4976131;28;19933;-68
2022/07/01 13:42:29;;;;;;;;;;;22.60;99.90;;;;;;4985866;28;19929;-68
2022/07/01 13:44:55;;;;;;;;;;;22.20;99.90;;;;;;4995234;28;19932;-68
2022/07/01 13:47:24;;;;;;;;;;;22.50;99.90;;;;;;4995901;28;19930;-68
2022/07/01 13:49:51;;;;;;;;;;;23.80;99.90;;;;;;4995408;28;19932;-67
2022/07/01 13:52:17;;;;;;;;;;;25.10;99.90;;;;;;4995281;28;19975;-68
2022/07/01 13:54:44;;;;;;;;;;;26.60;99.90;;;;;;4995103;28;19930;-68
2022/07/01 13:57:11;;;;;;;;;;;26.40;99.90;;;;;;4995867;28;19940;-68
2022/07/01 13:59:40;;;;;;;;;;;26.50;99.90;;;;;;4995318;28;19926;-68
2022/07/01 14:02:06;;;;;;;;;;;27.40;99.90;;;;;;4995370;28;19972;-68
2022/07/01 14:04:33;;;;;;;;;;;26.80;99.90;;;;;;4994477;28;19933;-68
2022/07/01 14:07:00;;;;;;;;;;;26.70;99.90;;;;;;4995001;28;19968;-67
2022/07/01 14:09:27;;;;;;;;;;;25.40;99.90;;;;;;4995182;28;19979;-68
2022/07/01 14:11:53;;;;;;;;;;;23.40;99.90;;;;;;4995142;28;20452;-68
2022/07/01 14:14:20;;;;;;;;;;;23.00;99.90;;;;;;4999326;28;19936;-67
2022/07/01 14:16:48;;;;;;;;;;;22.60;99.90;;;;;;5013284;28;19932;-68
2022/07/01 14:19:15;;;;;;;;;;;22.90;99.90;;;;;;5013338;28;19929;-68
2022/07/01 14:21:42;;;;;;;;;;;23.70;99.90;;;;;;4998561;28;19926;-68
2022/07/01 14:24:09;;;;;;;;;;;24.60;99.90;;;;;;4993993;28;19964;-68
2022/07/01 14:26:35;;;;;;;;;;;25.80;99.90;;;;;;4993893;28;20385;-68
2022/07/01 14:29:02;;;;;;;;;;;27.00;99.90;;;;;;4993758;28;20445;-68
2022/07/01 14:31:29;;;;;;;;;;;26.50;99.90;;;;;;4993039;28;20463;-68
2022/07/01 14:33:57;;;;;;;;;;;26.70;99.90;;;;;;5009601;28;20321;-67
2022/07/01 14:36:24;;;;;;;;;;;27.10;99.90;;;;;;4992758;28;19984;-68